createdAt,value
2023-02-19T00:00:07.835Z,100834.31
2023-02-19T00:02:35.493Z,100835.19
2023-02-19T00:05:02.278Z,100836.16
2023-02-19T00:07:29.048Z,100833.94
2023-02-19T00:09:55.774Z,100830.69
2023-02-19T00:12:22.522Z,100821.50
2023-02-19T00:14:49.282Z,100824.84
2023-02-19T00:17:16.019Z,100814.88
2023-02-19T00:19:42.767Z,100832.00
2023-02-19T00:22:09.663Z,100817.97
2023-02-19T00:24:36.416Z,100825.94
2023-02-19T00:27:03.148Z,100822.38
2023-02-19T00:29:29.905Z,100809.66
2023-02-19T00:31:56.799Z,100802.13
2023-02-19T00:34:23.629Z,100807.63
2023-02-19T00:36:50.387Z,100810.94
2023-02-19T00:39:18.243Z,100798.22
2023-02-19T00:41:46.186Z,100791.25
2023-02-19T00:44:13.183Z,100785.69
2023-02-19T00:46:40.016Z,100779.59
2023-02-19T00:49:06.799Z,100764.75
2023-02-19T00:51:33.620Z,100752.06
2023-02-19T00:54:00.358Z,100743.88
2023-02-19T00:56:27.090Z,100754.13
2023-02-19T00:58:53.916Z,100750.59
2023-02-19T01:01:20.872Z,100741.44
2023-02-19T01:03:47.757Z,100747.44
2023-02-19T01:06:14.571Z,100739.31
2023-02-19T01:08:41.317Z,100735.75
2023-02-19T01:11:08.406Z,100753.59
2023-02-19T01:13:35.286Z,100754.81
2023-02-19T01:16:02.070Z,100740.91
2023-02-19T01:18:28.824Z,100734.25
2023-02-19T01:20:55.571Z,100729.66
2023-02-19T01:23:22.300Z,100714.88
2023-02-19T01:25:49.089Z,100708.31
2023-02-19T01:28:15.835Z,100707.56
2023-02-19T01:30:42.580Z,100705.59
2023-02-19T01:33:09.384Z,100696.91
2023-02-19T01:35:36.138Z,100701.81
2023-02-19T01:38:02.921Z,100689.47
2023-02-19T01:40:29.650Z,100684.59
2023-02-19T01:42:56.392Z,100682.59
2023-02-19T01:45:23.167Z,100683.22
2023-02-19T01:47:49.899Z,100674.97
2023-02-19T01:50:16.704Z,100667.31
2023-02-19T01:52:43.451Z,100662.22
2023-02-19T01:55:10.186Z,100653.59
2023-02-19T01:57:36.990Z,100652.41
2023-02-19T02:00:03.731Z,100650.75
2023-02-19T02:02:30.481Z,100644.59
2023-02-19T02:04:57.311Z,100642.66
2023-02-19T02:07:42.894Z,100627.16
2023-02-19T02:10:21.812Z,100632.13
2023-02-19T02:12:48.539Z,100621.84
2023-02-19T02:15:16.108Z,100625.97
2023-02-19T02:17:42.843Z,100613.25
2023-02-19T02:20:09.578Z,100607.44
2023-02-19T02:22:36.316Z,100602.69
2023-02-19T02:25:03.100Z,100586.66
2023-02-19T02:27:29.840Z,100591.53
2023-02-19T02:29:56.653Z,100594.56
2023-02-19T02:32:23.396Z,100597.56
2023-02-19T02:34:50.134Z,100583.72
2023-02-19T02:37:16.909Z,100583.59
2023-02-19T02:39:43.717Z,100581.63
2023-02-19T02:42:28.570Z,100589.63
2023-02-19T02:45:14.160Z,100582.78
2023-02-19T02:47:40.972Z,100571.16
2023-02-19T02:50:07.761Z,100558.09
2023-02-19T02:52:53.055Z,100555.50
2023-02-19T02:55:19.843Z,100553.69
2023-02-19T02:57:46.588Z,100554.59
2023-02-19T03:00:13.335Z,100576.50
2023-02-19T03:02:40.068Z,100607.28
2023-02-19T03:05:25.365Z,100609.50
2023-02-19T03:07:52.165Z,100602.22
2023-02-19T03:10:18.909Z,100591.22
2023-02-19T03:13:04.404Z,100588.16
2023-02-19T03:15:49.654Z,100585.56
2023-02-19T03:18:35.190Z,100585.63
2023-02-19T03:21:01.922Z,100587.41
2023-02-19T03:23:48.644Z,100586.41
2023-02-19T03:26:15.671Z,100604.31
2023-02-19T03:29:01.381Z,100601.91
2023-02-19T03:31:28.174Z,100603.56
2023-02-19T03:33:54.957Z,100597.84
2023-02-19T03:36:27.878Z,100611.31
2023-02-19T03:38:54.632Z,100582.22
2023-02-19T03:41:21.354Z,100589.41
2023-02-19T03:43:48.116Z,100598.41
2023-02-19T03:46:14.890Z,100594.00
2023-02-19T03:48:41.633Z,100603.13
2023-02-19T03:51:08.652Z,100618.28
2023-02-19T03:53:35.592Z,100603.53
2023-02-19T03:56:02.338Z,100600.72
2023-02-19T03:58:29.119Z,100599.94
2023-02-19T04:00:55.856Z,100606.91
2023-02-19T04:03:22.593Z,100605.44
2023-02-19T04:05:49.344Z,100606.53
2023-02-19T04:08:16.108Z,100612.16
2023-02-19T04:10:42.847Z,100617.78
2023-02-19T04:13:09.601Z,100630.56
2023-02-19T04:15:36.330Z,100619.78
2023-02-19T04:18:03.070Z,100639.84
2023-02-19T04:20:29.840Z,100650.63
2023-02-19T04:22:56.577Z,100654.03
2023-02-19T04:25:23.351Z,100660.44
2023-02-19T04:27:50.105Z,100665.16
2023-02-19T04:30:16.901Z,100674.56
2023-02-19T04:32:43.668Z,100676.25
2023-02-19T04:35:10.515Z,100675.28
2023-02-19T04:37:37.283Z,100678.25
2023-02-19T04:40:04.054Z,100699.25
2023-02-19T04:42:30.817Z,100709.78
2023-02-19T04:44:57.557Z,100714.31
2023-02-19T04:47:24.306Z,100725.63
2023-02-19T04:49:51.075Z,100717.34
2023-02-19T04:52:17.850Z,100712.34
2023-02-19T04:54:44.577Z,100706.25
2023-02-19T04:57:11.319Z,100716.09
2023-02-19T04:59:38.100Z,100727.72
2023-02-19T05:02:04.846Z,100736.63
2023-02-19T05:04:31.652Z,100743.91
2023-02-19T05:06:58.431Z,100747.41
2023-02-19T05:09:25.177Z,100755.97
2023-02-19T05:11:51.978Z,100765.38
2023-02-19T05:14:18.779Z,100773.97
2023-02-19T05:16:45.593Z,100784.06
2023-02-19T05:19:12.523Z,100783.47
2023-02-19T05:21:41.350Z,100775.50
2023-02-19T05:24:08.140Z,100786.69
2023-02-19T05:26:34.923Z,100791.97
2023-02-19T05:29:01.672Z,100800.47
2023-02-19T05:31:28.511Z,100802.16
2023-02-19T05:33:55.322Z,100796.63
2023-02-19T05:36:22.101Z,100793.28
2023-02-19T05:38:48.830Z,100802.53
2023-02-19T05:41:15.650Z,100791.56
2023-02-19T05:43:42.439Z,100791.84
2023-02-19T05:46:09.207Z,100803.78
2023-02-19T05:48:35.983Z,100798.81
2023-02-19T05:51:02.868Z,100803.97
2023-02-19T05:53:29.866Z,100807.28
2023-02-19T05:55:56.644Z,100816.50
2023-02-19T05:58:23.394Z,100819.56
2023-02-19T06:00:50.114Z,100824.66
2023-02-19T06:03:16.851Z,100830.06
2023-02-19T06:05:43.601Z,100821.94
2023-02-19T06:08:10.335Z,100842.16
2023-02-19T06:10:38.349Z,100844.50
2023-02-19T06:13:05.071Z,100859.66
2023-02-19T06:15:31.826Z,100845.47
2023-02-19T06:17:58.584Z,100853.88
2023-02-19T06:20:26.385Z,100872.53
2023-02-19T06:22:53.152Z,100880.09
2023-02-19T06:25:19.905Z,100883.19
2023-02-19T06:27:46.668Z,100885.81
2023-02-19T06:30:13.430Z,100897.19
2023-02-19T06:32:40.185Z,100895.31
2023-02-19T06:35:06.933Z,100917.50
2023-02-19T06:37:33.703Z,100924.00
2023-02-19T06:40:00.499Z,100936.13
2023-02-19T06:42:27.247Z,100951.06
2023-02-19T06:44:53.986Z,100961.78
2023-02-19T06:47:20.738Z,100971.09
2023-02-19T06:49:47.493Z,100981.16
2023-02-19T06:52:14.234Z,100977.78
2023-02-19T06:54:40.978Z,100989.13
2023-02-19T06:57:07.724Z,100999.91
2023-02-19T06:59:34.470Z,100993.97
2023-02-19T07:02:01.350Z,101007.22
2023-02-19T07:04:28.166Z,101013.34
2023-02-19T07:06:54.939Z,101014.22
2023-02-19T07:09:21.789Z,101014.47
2023-02-19T07:11:48.568Z,101022.75
2023-02-19T07:14:15.403Z,101031.56
2023-02-19T07:16:42.306Z,101037.50
2023-02-19T07:19:09.578Z,101056.03
2023-02-19T07:21:37.694Z,101059.72
2023-02-19T07:24:04.979Z,101071.16
2023-02-19T07:26:31.746Z,101070.91
2023-02-19T07:28:58.551Z,101089.44
2023-02-19T07:31:25.432Z,101098.50
2023-02-19T07:33:52.235Z,101102.91
2023-02-19T07:36:19.014Z,101110.69
2023-02-19T07:38:45.806Z,101102.63
2023-02-19T07:41:12.836Z,101109.81
2023-02-19T07:43:40.064Z,101111.06
2023-02-19T07:46:06.938Z,101114.13
2023-02-19T07:48:34.037Z,101117.44
2023-02-19T07:51:00.757Z,101119.19
2023-02-19T07:53:27.529Z,101119.00
2023-02-19T07:55:54.327Z,101123.66
2023-02-19T07:58:21.061Z,101126.84
2023-02-19T08:00:47.887Z,101135.28
2023-02-19T08:03:14.736Z,101142.41
2023-02-19T08:05:41.510Z,101146.63
2023-02-19T08:08:08.257Z,101158.00
2023-02-19T08:10:53.790Z,101168.97
2023-02-19T08:13:22.444Z,101171.25
2023-02-19T08:15:49.328Z,101176.75
2023-02-19T08:18:16.469Z,101177.34
2023-02-19T08:20:43.246Z,101181.34
2023-02-19T08:23:09.985Z,101189.47
2023-02-19T08:25:36.739Z,101197.03
2023-02-19T08:28:03.544Z,101201.38
2023-02-19T08:30:30.357Z,101198.44
2023-02-19T08:32:57.199Z,101200.97
2023-02-19T08:35:23.948Z,101203.84
2023-02-19T08:37:50.696Z,101217.66
2023-02-19T08:40:17.443Z,101213.69
2023-02-19T08:42:44.224Z,101224.88
2023-02-19T08:45:10.991Z,101221.25
2023-02-19T08:47:38.127Z,101232.66
2023-02-19T08:50:05.058Z,101240.69
2023-02-19T08:52:31.796Z,101242.78
2023-02-19T08:54:58.712Z,101244.03
2023-02-19T08:57:26.455Z,101245.34
2023-02-19T08:59:53.198Z,101252.91
2023-02-19T09:02:19.943Z,101247.06
2023-02-19T09:04:46.707Z,101243.38
2023-02-19T09:07:13.476Z,101255.47
2023-02-19T09:09:40.229Z,101255.69
2023-02-19T09:12:06.975Z,101262.19
2023-02-19T09:14:34.415Z,101273.13
2023-02-19T09:17:01.156Z,101273.47
2023-02-19T09:19:27.921Z,101277.50
2023-02-19T09:21:54.688Z,101285.97
2023-02-19T09:24:21.428Z,101287.03
2023-02-19T09:26:48.187Z,101294.88
2023-02-19T09:29:15.322Z,101299.91
2023-02-19T09:31:42.240Z,101302.44
2023-02-19T09:34:09.041Z,101297.38
2023-02-19T09:36:35.878Z,101289.97
2023-02-19T09:39:04.368Z,101291.88
2023-02-19T09:41:31.190Z,101301.56
2023-02-19T09:43:57.919Z,101296.75
2023-02-19T09:46:24.742Z,101297.94
2023-02-19T09:48:51.542Z,101314.69
2023-02-19T09:51:18.284Z,101308.09
2023-02-19T09:53:45.081Z,101322.56
2023-02-19T09:56:11.825Z,101330.25
2023-02-19T09:58:38.546Z,101330.22
2023-02-19T10:01:05.298Z,101321.88
2023-02-19T10:03:34.183Z,101342.22
2023-02-19T10:06:01.710Z,101337.97
2023-02-19T10:08:28.464Z,101345.81
2023-02-19T10:10:55.215Z,101341.81
2023-02-19T10:13:22.043Z,101348.34
2023-02-19T10:15:48.808Z,101350.22
2023-02-19T10:18:15.577Z,101351.97
2023-02-19T10:20:42.314Z,101359.13
2023-02-19T10:23:09.049Z,101358.72
2023-02-19T10:25:35.814Z,101358.09
2023-02-19T10:28:02.581Z,101367.75
2023-02-19T10:30:29.493Z,101362.63
2023-02-19T10:32:56.260Z,101373.41
2023-02-19T10:35:23.014Z,101378.44
2023-02-19T10:37:49.781Z,101386.47
2023-02-19T10:40:16.577Z,101391.63
2023-02-19T10:42:43.419Z,101392.53
2023-02-19T10:45:10.170Z,101406.91
2023-02-19T10:47:37.144Z,101402.06
2023-02-19T10:50:04.761Z,101412.00
2023-02-19T10:52:31.659Z,101420.28
2023-02-19T10:54:58.483Z,101421.38
2023-02-19T10:57:29.643Z,101417.94
2023-02-19T10:59:57.651Z,101419.25
2023-02-19T11:02:49.746Z,101425.38
2023-02-19T11:05:16.742Z,101442.97
2023-02-19T11:07:43.477Z,101447.25
2023-02-19T11:10:10.241Z,101428.06
2023-02-19T11:12:36.992Z,101444.13
2023-02-19T11:15:03.752Z,101450.13
2023-02-19T11:17:30.505Z,101443.84
2023-02-19T11:19:57.262Z,101441.25
2023-02-19T11:22:24.016Z,101441.47
2023-02-19T11:24:51.796Z,101457.97
2023-02-19T11:27:19.289Z,101453.38
2023-02-19T11:29:46.011Z,101454.25
2023-02-19T11:32:12.817Z,101462.56
2023-02-19T11:34:39.580Z,101467.44
2023-02-19T11:37:06.317Z,101457.09
2023-02-19T11:39:33.747Z,101454.56
2023-02-19T11:42:00.476Z,101464.97
2023-02-19T11:44:30.113Z,101461.34
2023-02-19T11:46:56.852Z,101455.09
2023-02-19T11:49:23.600Z,101450.38
2023-02-19T11:51:52.717Z,101445.41
2023-02-19T11:54:19.780Z,101449.75
2023-02-19T11:56:46.562Z,101453.38
2023-02-19T11:59:13.443Z,101451.81
2023-02-19T12:01:40.483Z,101462.31
2023-02-19T12:04:07.244Z,101454.63
2023-02-19T12:06:33.993Z,101460.59
2023-02-19T12:09:00.748Z,101474.16
2023-02-19T12:11:27.486Z,101474.00
2023-02-19T12:13:54.281Z,101480.13
2023-02-19T12:16:21.083Z,101474.22
2023-02-19T12:18:47.849Z,101479.69
2023-02-19T12:21:14.612Z,101489.50
2023-02-19T12:23:41.369Z,101488.44
2023-02-19T12:26:08.305Z,101497.97
2023-02-19T12:28:35.205Z,101501.34
2023-02-19T12:31:01.978Z,101498.41
2023-02-19T12:33:28.757Z,101497.69
2023-02-19T12:35:55.497Z,101501.22
2023-02-19T12:38:23.201Z,101502.84
2023-02-19T12:40:49.947Z,101501.09
2023-02-19T12:43:16.767Z,101501.84
2023-02-19T12:45:43.530Z,101494.31
2023-02-19T12:48:10.418Z,101498.66
2023-02-19T12:50:37.174Z,101498.25
2023-02-19T12:53:03.932Z,101502.53
2023-02-19T12:55:30.744Z,101510.38
2023-02-19T12:57:57.547Z,101511.03
2023-02-19T13:00:24.352Z,101506.44
2023-02-19T13:02:51.136Z,101501.78
2023-02-19T13:05:17.966Z,101500.53
2023-02-19T13:07:44.722Z,101506.47
2023-02-19T13:10:11.488Z,101503.00
2023-02-19T13:12:38.232Z,101512.50
2023-02-19T13:15:05.143Z,101515.91
2023-02-19T13:17:31.918Z,101523.22
2023-02-19T13:19:58.654Z,101519.56
2023-02-19T13:22:43.847Z,101522.50
2023-02-19T13:25:10.582Z,101525.25
2023-02-19T13:27:37.351Z,101522.69
2023-02-19T13:30:04.248Z,101525.91
2023-02-19T13:32:31.124Z,101535.47
2023-02-19T13:34:57.934Z,101536.38
2023-02-19T13:37:24.689Z,101548.22
2023-02-19T13:39:51.503Z,101539.16
2023-02-19T13:42:18.238Z,101538.16
2023-02-19T13:44:44.988Z,101547.28
2023-02-19T13:47:11.728Z,101545.34
2023-02-19T13:49:38.528Z,101543.06
2023-02-19T13:52:05.293Z,101555.41
2023-02-19T13:54:33.280Z,101554.66
2023-02-19T13:57:00.037Z,101544.03
2023-02-19T13:59:26.787Z,101539.53
2023-02-19T14:01:53.624Z,101533.31
2023-02-19T14:04:20.461Z,101533.94
2023-02-19T14:06:47.210Z,101543.97
2023-02-19T14:09:13.951Z,101544.41
2023-02-19T14:11:40.692Z,101548.91
2023-02-19T14:14:09.744Z,101549.19
2023-02-19T14:16:37.773Z,101551.34
2023-02-19T14:19:04.526Z,101548.25
2023-02-19T14:21:31.289Z,101554.59
2023-02-19T14:23:58.202Z,101555.94
2023-02-19T14:26:24.981Z,101542.59
2023-02-19T14:28:51.731Z,101539.03
2023-02-19T14:31:18.911Z,101532.69
2023-02-19T14:33:45.922Z,101530.56
2023-02-19T14:36:12.680Z,101525.03
2023-02-19T14:38:39.439Z,101528.25
2023-02-19T14:41:06.186Z,101526.75
2023-02-19T14:43:32.923Z,101535.63
2023-02-19T14:45:59.694Z,101548.81
2023-02-19T14:48:26.643Z,101539.81
2023-02-19T14:50:53.403Z,101538.91
2023-02-19T14:53:20.134Z,101536.72
2023-02-19T14:55:46.868Z,101547.94
2023-02-19T14:58:13.623Z,101558.34
2023-02-19T15:00:40.410Z,101558.16
2023-02-19T15:03:07.161Z,101564.72
2023-02-19T15:05:33.906Z,101564.75
2023-02-19T15:08:00.705Z,101558.94
2023-02-19T15:10:27.455Z,101553.63
2023-02-19T15:12:54.204Z,101548.34
2023-02-19T15:15:20.935Z,101548.91
2023-02-19T15:17:47.774Z,101550.13
2023-02-19T15:20:14.518Z,101560.53
2023-02-19T15:22:41.471Z,101579.03
2023-02-19T15:25:08.234Z,101572.72
2023-02-19T15:27:35.420Z,101571.25
2023-02-19T15:30:02.280Z,101566.69
2023-02-19T15:32:29.113Z,101563.25
2023-02-19T15:34:55.899Z,101574.69
2023-02-19T15:37:22.614Z,101570.75
2023-02-19T15:39:49.396Z,101576.28
2023-02-19T15:42:16.140Z,101571.72
2023-02-19T15:44:42.943Z,101575.72
2023-02-19T15:47:09.676Z,101572.84
2023-02-19T15:49:36.452Z,101570.75
2023-02-19T15:52:03.204Z,101577.97
2023-02-19T15:54:30.470Z,101586.47
2023-02-19T15:56:57.213Z,101587.16
2023-02-19T15:59:23.952Z,101586.81
2023-02-19T16:01:50.721Z,101593.31
2023-02-19T16:04:17.509Z,101586.72
2023-02-19T16:06:44.247Z,101594.31
2023-02-19T16:09:10.984Z,101588.72
2023-02-19T16:11:37.784Z,101590.16
2023-02-19T16:14:04.584Z,101584.41
2023-02-19T16:16:31.390Z,101581.22
2023-02-19T16:18:58.175Z,101584.09
2023-02-19T16:21:25.410Z,101587.94
2023-02-19T16:23:54.405Z,101587.16
2023-02-19T16:26:21.174Z,101599.88
2023-02-19T16:28:47.900Z,101595.44
2023-02-19T16:31:15.198Z,101599.34
2023-02-19T16:33:42.220Z,101595.31
2023-02-19T16:36:08.948Z,101611.03
2023-02-19T16:38:35.923Z,101616.84
2023-02-19T16:41:02.837Z,101613.81
2023-02-19T16:43:31.270Z,101609.22
2023-02-19T16:45:58.057Z,101622.13
2023-02-19T16:48:24.851Z,101614.00
2023-02-19T16:50:51.666Z,101636.31
2023-02-19T16:53:19.091Z,101624.00
2023-02-19T16:55:45.911Z,101633.91
2023-02-19T16:58:12.648Z,101640.31
2023-02-19T17:00:40.202Z,101645.81
2023-02-19T17:03:08.896Z,101643.75
2023-02-19T17:05:35.733Z,101656.31
2023-02-19T17:08:02.521Z,101665.63
2023-02-19T17:10:29.266Z,101653.63
2023-02-19T17:12:56.013Z,101649.50
2023-02-19T17:15:22.767Z,101645.69
2023-02-19T17:17:49.523Z,101639.78
2023-02-19T17:20:16.268Z,101636.41
2023-02-19T17:22:43.014Z,101626.03
2023-02-19T17:25:09.795Z,101647.31
2023-02-19T17:27:36.561Z,101652.66
2023-02-19T17:30:03.367Z,101650.34
2023-02-19T17:32:30.311Z,101661.50
2023-02-19T17:34:57.108Z,101671.22
2023-02-19T17:37:23.929Z,101687.28
2023-02-19T17:39:50.672Z,101682.28
2023-02-19T17:42:18.687Z,101681.72
2023-02-19T17:44:47.256Z,101688.38
2023-02-19T17:47:14.117Z,101682.47
2023-02-19T17:49:40.858Z,101676.84
2023-02-19T17:52:07.600Z,101685.16
2023-02-19T17:54:34.423Z,101683.72
2023-02-19T17:57:01.179Z,101683.72
2023-02-19T17:59:27.938Z,101680.78
2023-02-19T18:01:55.045Z,101686.31
2023-02-19T18:04:21.875Z,101694.88
2023-02-19T18:06:48.781Z,101700.16
2023-02-19T18:09:18.114Z,101696.63
2023-02-19T18:11:45.540Z,101704.59
2023-02-19T18:14:12.294Z,101701.56
2023-02-19T18:16:39.050Z,101693.00
2023-02-19T18:19:05.792Z,101691.41
2023-02-19T18:21:32.527Z,101699.84
2023-02-19T18:23:59.274Z,101696.25
2023-02-19T18:26:25.995Z,101700.72
2023-02-19T18:28:52.733Z,101703.25
2023-02-19T18:31:19.544Z,101700.78
2023-02-19T18:33:46.460Z,101702.19
2023-02-19T18:36:13.213Z,101703.06
2023-02-19T18:38:39.987Z,101711.38
2023-02-19T18:41:06.752Z,101702.97
2023-02-19T18:43:33.489Z,101716.97
2023-02-19T18:46:00.309Z,101707.88
2023-02-19T18:48:27.077Z,101713.22
2023-02-19T18:50:53.817Z,101713.03
2023-02-19T18:53:20.630Z,101720.47
2023-02-19T18:55:47.568Z,101720.75
2023-02-19T18:58:14.336Z,101714.59
2023-02-19T19:00:41.133Z,101705.41
2023-02-19T19:03:07.932Z,101707.72
2023-02-19T19:05:34.656Z,101699.66
2023-02-19T19:08:01.771Z,101709.09
2023-02-19T19:10:28.676Z,101702.75
2023-02-19T19:12:55.485Z,101707.09
2023-02-19T19:15:22.403Z,101711.25
2023-02-19T19:17:49.498Z,101706.63
2023-02-19T19:20:16.338Z,101711.50
2023-02-19T19:22:43.102Z,101707.97
2023-02-19T19:25:09.916Z,101704.84
2023-02-19T19:27:36.715Z,101709.56
2023-02-19T19:30:03.582Z,101708.34
2023-02-19T19:32:30.350Z,101708.00
2023-02-19T19:34:57.610Z,101704.72
2023-02-19T19:37:26.170Z,101712.75
2023-02-19T19:39:54.214Z,101711.38
2023-02-19T19:42:21.153Z,101707.88
2023-02-19T19:44:47.898Z,101708.97
2023-02-19T19:47:14.784Z,101709.03
2023-02-19T19:49:41.605Z,101725.34
2023-02-19T19:52:08.405Z,101716.84
2023-02-19T19:54:36.266Z,101726.31
2023-02-19T19:57:03.026Z,101722.13
2023-02-19T19:59:29.839Z,101716.97
2023-02-19T20:01:57.788Z,101723.69
2023-02-19T20:04:24.666Z,101718.56
2023-02-19T20:06:51.457Z,101717.03
2023-02-19T20:09:18.216Z,101720.91
2023-02-19T20:11:45.049Z,101716.72
2023-02-19T20:14:11.859Z,101715.09
2023-02-19T20:16:38.614Z,101722.31
2023-02-19T20:19:05.366Z,101718.56
2023-02-19T20:21:32.098Z,101702.38
2023-02-19T20:23:58.841Z,101702.72
2023-02-19T20:26:25.731Z,101699.84
2023-02-19T20:28:52.493Z,101702.03
2023-02-19T20:31:19.657Z,101692.41
2023-02-19T20:33:47.680Z,101698.41
2023-02-19T20:36:14.428Z,101701.41
2023-02-19T20:38:43.345Z,101707.06
2023-02-19T20:41:10.495Z,101703.38
2023-02-19T20:43:37.434Z,101703.78
2023-02-19T20:46:04.384Z,101707.28
2023-02-19T20:48:31.199Z,101708.63
2023-02-19T20:50:59.508Z,101707.78
2023-02-19T20:53:26.328Z,101705.97
2023-02-19T20:55:53.138Z,101708.31
2023-02-19T20:58:21.004Z,101712.56
2023-02-19T21:00:47.887Z,101709.19
2023-02-19T21:03:14.670Z,101718.16
2023-02-19T21:05:42.844Z,101714.09
2023-02-19T21:08:11.559Z,101715.06
2023-02-19T21:10:38.833Z,101705.13
2023-02-19T21:13:05.653Z,101703.63
2023-02-19T21:15:32.571Z,101715.84
2023-02-19T21:17:59.403Z,101720.38
2023-02-19T21:20:26.201Z,101716.75
2023-02-19T21:22:52.966Z,101725.69
2023-02-19T21:25:19.706Z,101728.28
2023-02-19T21:27:46.506Z,101713.97
2023-02-19T21:30:13.370Z,101696.72
2023-02-19T21:32:40.139Z,101699.88
2023-02-19T21:35:06.918Z,101698.03
2023-02-19T21:37:33.787Z,101692.63
2023-02-19T21:40:00.610Z,101682.50
2023-02-19T21:42:27.549Z,101688.44
2023-02-19T21:44:54.329Z,101685.91
2023-02-19T21:47:21.063Z,101691.09
2023-02-19T21:49:47.819Z,101695.63
2023-02-19T21:52:14.939Z,101690.84
2023-02-19T21:54:41.693Z,101688.16
2023-02-19T21:57:09.380Z,101683.50
2023-02-19T21:59:36.153Z,101693.28
2023-02-19T22:02:02.906Z,101687.81
2023-02-19T22:04:29.671Z,101686.06
2023-02-19T22:06:56.585Z,101683.03
2023-02-19T22:09:23.341Z,101686.00
2023-02-19T22:11:50.145Z,101676.78
2023-02-19T22:14:16.928Z,101686.06
2023-02-19T22:16:43.829Z,101681.13
2023-02-19T22:19:11.920Z,101677.34
2023-02-19T22:21:38.720Z,101683.25
2023-02-19T22:24:05.442Z,101682.75
2023-02-19T22:26:32.257Z,101678.94
2023-02-19T22:28:59.468Z,101674.69
2023-02-19T22:31:26.398Z,101673.38
2023-02-19T22:33:53.341Z,101670.88
2023-02-19T22:36:20.072Z,101682.09
2023-02-19T22:38:46.880Z,101670.56
2023-02-19T22:41:13.754Z,101678.03
2023-02-19T22:43:40.493Z,101680.03
2023-02-19T22:46:07.256Z,101677.50
2023-02-19T22:48:34.012Z,101685.00
2023-02-19T22:51:02.247Z,101683.16
2023-02-19T22:53:29.091Z,101679.66
2023-02-19T22:55:55.869Z,101679.41
2023-02-19T22:58:22.653Z,101688.19
2023-02-19T23:00:49.443Z,101690.81
2023-02-19T23:03:16.303Z,101685.38
2023-02-19T23:05:43.060Z,101681.97
2023-02-19T23:08:09.810Z,101665.16
2023-02-19T23:10:36.661Z,101667.44
2023-02-19T23:13:03.588Z,101662.19
2023-02-19T23:15:30.347Z,101661.19
2023-02-19T23:17:57.131Z,101656.50
2023-02-19T23:20:23.883Z,101654.41
2023-02-19T23:22:50.626Z,101650.03
2023-02-19T23:25:17.393Z,101648.19
2023-02-19T23:27:44.138Z,101657.94
2023-02-19T23:30:11.045Z,101659.91
2023-02-19T23:32:37.823Z,101653.94
2023-02-19T23:35:04.603Z,101648.66
2023-02-19T23:37:31.984Z,101653.38
2023-02-19T23:39:58.771Z,101653.81
2023-02-19T23:42:25.594Z,101648.81
2023-02-19T23:44:52.335Z,101647.75
2023-02-19T23:47:20.017Z,101634.94
2023-02-19T23:49:46.791Z,101626.50
2023-02-19T23:52:13.536Z,101625.25
2023-02-19T23:54:40.634Z,101633.34
2023-02-19T23:57:07.473Z,101618.81
2023-02-19T23:59:34.214Z,101619.25
